Time;durP1;ratioP1;P1;durP2;ratioP2;P2;SDS_P1;SDS_P2;PMS_P1;PMS_P2;Temp;Humidity;BMP_temperature;BMP_pressure;BME280_temperature;BME280_humidity;BME280_pressure;Samples;Min_cycle;Max_cycle;Signal;HPM_P1;HPM_P2
2023/02/13 00:01:09;;;;;;;0.50;0.50;;;;;;;5.32;92.66;101969.28;5105083;28;20032;-73
2023/02/13 00:03:35;;;;;;;0.55;0.55;;;;;;;5.28;92.53;101963.16;5105045;28;20110;-73
2023/02/13 00:06:00;;;;;;;0.43;0.43;;;;;;;5.28;92.50;101972.56;5105308;28;20034;-73
2023/02/13 00:08:26;;;;;;;0.50;0.50;;;;;;;5.26;92.74;101971.63;5104689;28;20024;-73
2023/02/13 00:10:51;;;;;;;39.08;4.03;;;;;;;5.21;92.85;101971.44;5105322;28;20024;-72
2023/02/13 00:13:16;;;;;;;0.50;0.50;;;;;;;5.24;92.84;101962.97;5105112;28;20084;-72
2023/02/13 00:15:42;;;;;;;0.50;0.50;;;;;;;5.23;92.78;101963.78;5106270;28;20475;-72
2023/02/13 00:18:07;;;;;;;0.60;0.60;;;;;;;5.17;92.72;101955.03;5105248;28;20112;-73
2023/02/13 00:20:33;;;;;;;2.28;2.15;;;;;;;5.18;92.77;101959.34;5105115;28;20032;-74
2023/02/13 00:23:02;;;;;;;0.50;0.50;;;;;;;5.18;92.91;101958.44;5104772;28;20487;-73
2023/02/13 00:25:27;;;;;;;0.50;0.50;;;;;;;5.22;93.20;101960.34;5104771;28;20031;-74
2023/02/13 00:27:56;;;;;;;0.50;0.50;;;;;;;5.20;93.21;101965.44;5104858;28;20020;-73
2023/02/13 00:30:21;;;;;;;2.83;2.10;;;;;;;5.17;93.06;101952.44;5104787;28;20282;-72
2023/02/13 00:32:47;;;;;;;0.50;0.50;;;;;;;5.19;93.20;101961.09;5104661;28;20267;-74
2023/02/13 00:35:13;;;;;;;0.50;0.50;;;;;;;5.16;93.29;101955.81;5086851;28;20391;-74
2023/02/13 00:37:38;;;;;;;0.50;0.50;;;;;;;5.19;93.31;101958.50;5104378;28;20067;-73
2023/02/13 00:40:04;;;;;;;0.50;0.50;;;;;;;5.21;93.40;101964.59;5104891;28;20087;-74
2023/02/13 00:42:29;;;;;;;0.50;0.50;;;;;;;5.19;93.05;101967.94;5104726;28;20039;-73
2023/02/13 00:44:57;;;;;;;0.60;0.60;;;;;;;5.15;93.28;101969.53;5104922;28;20020;-75
2023/02/13 00:47:23;;;;;;;0.50;0.50;;;;;;;5.12;93.27;101966.81;5086264;28;20074;-74
2023/02/13 00:49:48;;;;;;;0.40;0.40;;;;;;;5.13;93.15;101965.13;5104745;28;20028;-73
2023/02/13 00:52:14;;;;;;;0.50;0.50;;;;;;;5.13;93.36;101962.56;5086197;28;20024;-73
2023/02/13 00:54:39;;;;;;;0.50;0.50;;;;;;;5.14;92.98;101962.63;5104732;28;20523;-74
2023/02/13 00:57:05;;;;;;;0.50;0.50;;;;;;;5.11;93.12;101965.09;5104570;28;20024;-73
2023/02/13 00:59:30;;;;;;;0.50;0.50;;;;;;;5.12;93.05;101966.81;5089533;28;20024;-75
2023/02/13 01:01:55;;;;;;;0.50;0.50;;;;;;;5.12;92.97;101961.69;5108278;28;20040;-73
2023/02/13 01:04:21;;;;;;;0.50;0.50;;;;;;;5.10;93.12;101963.31;5108105;28;20032;-73
2023/02/13 01:06:47;;;;;;;0.50;0.50;;;;;;;5.05;92.99;101960.53;5108172;28;20016;-74
2023/02/13 01:09:12;;;;;;;0.57;0.57;;;;;;;5.02;93.08;101959.53;5089871;28;20024;-73
2023/02/13 01:11:37;;;;;;;0.50;0.50;;;;;;;5.01;93.30;101957.78;5107953;28;20031;-74
2023/02/13 01:14:04;;;;;;;0.50;0.50;;;;;;;5.01;93.36;101953.53;5108233;28;20039;-73
2023/02/13 01:16:29;;;;;;;0.50;0.50;;;;;;;5.05;92.93;101954.50;5108169;28;20028;-73
2023/02/13 01:18:58;;;;;;;0.50;0.50;;;;;;;5.01;93.01;101957.78;5107845;28;20024;-73
2023/02/13 01:21:23;;;;;;;0.50;0.50;;;;;;;5.06;93.03;101956.28;5107747;28;20031;-74
2023/02/13 01:23:49;;;;;;;0.50;0.50;;;;;;;5.01;92.91;101952.66;5107617;28;20024;-74
2023/02/13 01:26:20;;;;;;;0.50;0.50;;;;;;;4.96;92.91;101940.47;5089490;28;20020;-75
2023/02/13 01:28:46;;;;;;;0.60;0.60;;;;;;;4.96;92.81;101943.06;5107491;28;20016;-74
2023/02/13 01:31:12;;;;;;;0.47;0.47;;;;;;;4.96;92.88;101943.06;5089371;28;20048;-74
2023/02/13 01:33:37;;;;;;;0.40;0.40;;;;;;;4.91;92.61;101939.41;5107494;28;20137;-73
2023/02/13 01:36:08;;;;;;;0.50;0.50;;;;;;;4.86;92.91;101927.19;5107621;28;20027;-74
2023/02/13 01:38:33;;;;;;;2.67;2.47;;;;;;;4.84;92.59;101930.56;5107345;28;20102;-74
2023/02/13 01:40:59;;;;;;;0.50;0.50;;;;;;;4.88;92.58;101939.28;5107542;28;20032;-73
2023/02/13 01:43:46;;;;;;;0.50;0.50;;;;;;;4.78;92.83;101925.19;5105943;28;20020;-74
2023/02/13 01:46:18;;;;;;;0.50;0.50;;;;;;;4.82;92.66;101934.75;5107345;28;20111;-75
2023/02/13 01:48:43;;;;;;;;;;;;;;;4.85;92.71;101941.75;5107444;28;20052;-75
2023/02/13 01:51:15;;;;;;;0.50;0.50;;;;;;;4.79;92.84;101937.22;5107383;28;19915;-74
2023/02/13 01:53:43;;;;;;;;;;;;;;;4.81;92.71;101934.69;5107443;28;20024;-76
2023/02/13 01:56:24;;;;;;;0.50;0.50;;;;;;;4.79;92.63;101929.50;5107123;28;19908;-75
2023/02/13 01:58:53;;;;;;;0.50;0.50;;;;;;;4.78;92.63;101938.03;5088781;28;20081;-74
2023/02/13 02:01:20;;;;;;;0.50;0.50;;;;;;;4.80;92.67;101941.56;5088910;28;20032;-74
2023/02/13 02:03:49;;;;;;;0.40;0.40;;;;;;;4.79;92.83;101926.06;5107034;28;20020;-73
2023/02/13 02:06:26;;;;;;;0.60;0.60;;;;;;;4.78;92.97;101934.56;5106574;28;20032;-73
2023/02/13 02:08:53;;;;;;;0.50;0.50;;;;;;;4.79;92.69;101929.50;5087919;28;20016;-75
2023/02/13 02:11:45;;;;;;;0.50;0.50;;;;;;;4.81;92.61;101924.41;5106292;28;20028;-73
2023/02/13 02:14:10;;;;;;;0.50;0.50;;;;;;;4.78;92.71;101929.44;5004630;28;20520;-75
2023/02/13 02:16:36;;;;;;;0.50;0.50;;;;;;;4.74;92.60;101938.75;4988262;28;20034;-74
2023/02/13 02:19:08;;;;;;;0.52;0.52;;;;;;;4.76;92.50;101937.09;5004477;28;20038;-75
2023/02/13 02:21:45;;;;;;;0.45;0.45;;;;;;;4.77;92.65;101943.13;5004746;28;20018;-75
2023/02/13 02:24:13;;;;;;;0.55;0.55;;;;;;;4.77;92.51;101932.84;5004363;28;20053;-74
2023/02/13 02:27:13;;;;;;;0.60;0.60;;;;;;;4.77;92.48;101948.28;5004408;28;20130;-74
2023/02/13 02:30:14;;;;;;;0.50;0.50;;;;;;;4.72;92.63;101940.38;4987910;28;20023;-73
2023/02/13 02:32:54;;;;;;;0.50;0.50;;;;;;;4.69;92.62;101940.25;4965546;29;20063;-75
2023/02/13 02:35:34;;;;;;;0.50;0.50;;;;;;;4.68;92.49;101936.78;4965481;29;20134;-75
2023/02/13 02:38:02;;;;;;;0.50;0.50;;;;;;;4.64;92.39;101934.91;4965213;29;20555;-74
2023/02/13 02:40:43;;;;;;;0.60;0.60;;;;;;;4.56;92.47;101919.16;4965554;29;20066;-74
2023/02/13 02:43:30;;;;;;;0.60;0.60;;;;;;;4.59;92.40;101920.97;4965495;29;20034;-74
2023/02/13 02:46:15;;;;;;;0.57;0.57;;;;;;;4.52;92.55;101918.97;4965730;29;20075;-75
2023/02/13 02:52:01;;;;;;;0.50;0.50;;;;;;;4.51;92.63;101928.38;5033705;28;20075;-74
2023/02/13 03:06:09;;;;;;;0.40;0.40;;;;;;;4.53;92.57;101931.03;5063424;28;20044;-75
2023/02/13 03:06:10;;;;;;;0.50;0.50;;;;;;;4.50;92.65;101929.22;5072518;28;20042;-71
2023/02/13 03:14:12;;;;;;;0.50;0.50;;;;;;;4.43;92.88;101928.06;5106123;28;20039;-69
2023/02/13 03:22:49;;;;;;;0.50;0.50;;;;;;;4.43;92.62;101938.34;5022842;28;20029;-70
2023/02/13 03:25:18;;;;;;;0.55;0.55;;;;;;;4.38;92.81;101926.13;5023273;28;20038;-70
2023/02/13 03:30:55;;;;;;;0.50;0.50;;;;;;;4.44;92.88;101934.97;5023186;28;20040;-71
2023/02/13 03:33:47;;;;;;;1.13;1.13;;;;;;;4.43;92.96;101933.22;5022879;28;20089;-71
2023/02/13 03:39:21;;;;;;;0.50;0.50;;;;;;;4.44;92.84;101914.38;5022888;28;20093;-70
2023/02/13 03:42:05;;;;;;;0.50;0.50;;;;;;;4.44;92.87;101913.53;5023214;28;20030;-71
2023/02/13 03:44:37;;;;;;;0.60;0.60;;;;;;;4.45;93.10;101910.13;5023067;28;20033;-70
2023/02/13 03:47:05;;;;;;;0.50;0.50;;;;;;;4.45;93.10;101910.13;5022862;28;20094;-72
2023/02/13 03:52:42;;;;;;;0.82;0.82;;;;;;;4.45;93.13;101900.72;5026658;28;20532;-70
2023/02/13 04:01:08;;;;;;;0.55;0.55;;;;;;;4.47;92.90;101909.38;5105280;28;20089;-69
2023/02/13 04:03:41;;;;;;;0.50;0.50;;;;;;;4.53;93.04;101918.16;5105190;28;20027;-70
2023/02/13 04:06:14;;;;;;;1.20;1.20;;;;;;;4.53;92.89;101910.44;5105150;28;20024;-71
2023/02/13 04:08:39;;;;;;;0.50;0.50;;;;;;;4.51;92.69;101910.38;5086558;28;20024;-70
2023/02/13 04:11:14;;;;;;;0.50;0.50;;;;;;;4.53;92.88;101923.31;5105045;28;20019;-70
2023/02/13 04:13:49;;;;;;;0.50;0.50;;;;;;;4.49;92.68;101906.00;5104850;28;20134;-71
2023/02/13 04:16:32;;;;;;;0.50;0.50;;;;;;;4.53;92.45;101916.47;5105249;28;20016;-71
2023/02/13 04:18:59;;;;;;;0.50;0.50;;;;;;;4.51;92.34;101923.25;5104911;28;20028;-71
2023/02/13 04:21:25;;;;;;;0.50;0.50;;;;;;;4.53;92.26;101915.59;5086732;28;20024;-70
2023/02/13 04:23:51;;;;;;;21.92;3.28;;;;;;;4.56;92.33;101920.84;5104748;28;20028;-71
2023/02/13 04:26:19;;;;;;;0.50;0.50;;;;;;;4.49;92.46;101924.00;5104963;28;20027;-72
2023/02/13 04:28:45;;;;;;;0.50;0.50;;;;;;;4.50;92.26;101944.63;5104769;28;20024;-70
2023/02/13 04:31:11;;;;;;;0.60;0.60;;;;;;;4.48;92.02;101941.13;5104970;28;20084;-70
2023/02/13 04:33:36;;;;;;;0.85;0.85;;;;;;;4.47;92.23;101936.81;5106729;28;20024;-70
2023/02/13 04:36:02;;;;;;;0.50;0.50;;;;;;;4.46;92.08;101935.03;5108843;28;20023;-72
2023/02/13 04:38:27;;;;;;;0.50;0.50;;;;;;;4.43;92.18;101942.59;5108399;28;20028;-71
2023/02/13 04:40:52;;;;;;;0.50;0.50;;;;;;;4.40;92.13;101942.47;5108765;28;20028;-71
2023/02/13 04:43:18;;;;;;;0.50;0.50;;;;;;;4.41;92.10;101939.97;5108628;28;20464;-70
2023/02/13 04:45:47;;;;;;;0.50;0.50;;;;;;;4.37;92.30;101926.94;5108648;28;20035;-71
2023/02/13 04:48:13;;;;;;;0.52;0.52;;;;;;;4.37;92.11;101937.22;5108455;28;20079;-70
2023/02/13 04:50:38;;;;;;;1.17;1.17;;;;;;;4.34;92.14;101938.84;5108629;28;20043;-70
2023/02/13 04:53:04;;;;;;;0.60;0.60;;;;;;;4.31;92.17;101943.84;5108226;28;20030;-71
2023/02/13 04:55:29;;;;;;;0.60;0.60;;;;;;;4.30;92.30;101942.09;5108493;28;20028;-71
2023/02/13 04:58:01;;;;;;;1.67;1.58;;;;;;;4.31;92.21;101945.56;5108462;28;20028;-71
2023/02/13 05:00:28;;;;;;;0.70;0.70;;;;;;;4.30;92.18;101941.22;5108504;28;20028;-71
2023/02/13 05:02:59;;;;;;;0.50;0.50;;;;;;;4.26;92.42;101926.47;5108233;28;20077;-71
2023/02/13 05:05:25;;;;;;;0.60;0.60;;;;;;;4.29;92.47;101916.31;5108405;28;20057;-72
2023/02/13 05:07:50;;;;;;;0.50;0.50;;;;;;;4.33;92.56;101928.47;5108201;28;20024;-73
2023/02/13 05:10:16;;;;;;;0.50;0.50;;;;;;;4.30;92.68;101929.25;5108242;28;20027;-71
2023/02/13 05:12:41;;;;;;;0.50;0.50;;;;;;;4.33;92.62;101926.78;5108041;28;20024;-71
2023/02/13 05:15:07;;;;;;;0.50;0.50;;;;;;;4.36;92.74;101932.91;5108127;28;20467;-71
2023/02/13 05:17:32;;;;;;;0.50;0.50;;;;;;;4.34;92.64;101936.25;5108072;28;20027;-70
2023/02/13 05:19:58;;;;;;;6.15;1.63;;;;;;;4.36;92.88;101936.31;5107746;28;20021;-72
2023/02/13 05:25:08;;;;;;;0.50;0.50;;;;;;;4.38;92.91;101931.28;5107974;28;20046;-72
2023/02/13 05:27:33;;;;;;;0.50;0.50;;;;;;;4.36;92.99;101930.31;5107928;28;20456;-71
2023/02/13 05:29:59;;;;;;;0.50;0.50;;;;;;;4.37;93.05;101925.25;5089697;28;20023;-73
2023/02/13 05:32:24;;;;;;;0.50;0.50;;;;;;;4.38;93.06;101932.13;5107697;28;20032;-73
2023/02/13 05:34:50;;;;;;;0.50;0.50;;;;;;;4.36;93.18;101927.75;5107636;28;20035;-72
2023/02/13 05:37:15;;;;;;;0.50;0.50;;;;;;;4.32;92.82;101922.47;5089408;28;20027;-71
2023/02/13 05:39:40;;;;;;;0.50;0.50;;;;;;;4.40;93.23;101943.38;5107359;28;20024;-72
2023/02/13 05:42:06;;;;;;;0.50;0.50;;;;;;;4.43;93.06;101951.22;5108065;28;20016;-71
2023/02/13 05:44:31;;;;;;;0.50;0.50;;;;;;;4.42;93.10;101954.59;5107919;28;20028;-71
2023/02/13 05:46:57;;;;;;;0.50;0.50;;;;;;;4.41;93.04;101950.25;5108654;28;20063;-71
2023/02/13 05:49:22;;;;;;;0.50;0.50;;;;;;;4.42;92.91;101952.03;5108958;28;20024;-71
2023/02/13 05:51:50;;;;;;;0.50;0.50;;;;;;;4.47;92.97;101965.94;5109220;28;20016;-75
2023/02/13 05:54:16;;;;;;;0.50;0.50;;;;;;;4.42;92.84;101962.31;5109759;28;20047;-71
2023/02/13 05:56:41;;;;;;;3.42;3.08;;;;;;;4.45;93.14;101972.75;5108079;28;20020;-73
2023/02/13 05:59:07;;;;;;;1.73;1.58;;;;;;;4.46;92.91;101971.91;5088955;28;20051;-74
2023/02/13 06:01:32;;;;;;;1.52;1.50;;;;;;;4.42;92.77;101972.63;5107386;28;20020;-73
2023/02/13 06:03:58;;;;;;;0.50;0.50;;;;;;;4.43;92.65;101973.47;5107303;28;20024;-71
2023/02/13 06:06:24;;;;;;;0.50;0.50;;;;;;;4.34;92.70;101955.97;5107116;28;20041;-71
2023/02/13 06:08:49;;;;;;;0.50;0.50;;;;;;;4.42;92.65;101962.31;5106706;28;20023;-70
2023/02/13 06:11:15;;;;;;;0.60;0.60;;;;;;;4.43;92.76;101974.34;5089240;28;20078;-72
2023/02/13 06:13:40;;;;;;;0.82;0.82;;;;;;;4.42;92.75;101970.03;5107647;28;20021;-71
2023/02/13 06:16:12;;;;;;;0.55;0.55;;;;;;;4.45;92.76;101962.44;5107180;28;20026;-71
2023/02/13 06:18:38;;;;;;;0.90;0.90;;;;;;;4.47;92.72;101977.94;5106619;28;20024;-71
2023/02/13 06:21:04;;;;;;;0.50;0.50;;;;;;;4.42;92.46;101967.47;5106816;28;20051;-71
2023/02/13 06:23:29;;;;;;;1.13;1.13;;;;;;;4.51;92.41;101976.34;5106617;28;20111;-71
2023/02/13 06:25:55;;;;;;;0.50;0.50;;;;;;;4.49;92.56;101978.00;5106645;28;20093;-70
2023/02/13 06:28:21;;;;;;;0.50;0.50;;;;;;;4.47;92.49;101983.09;5088546;28;20024;-71
2023/02/13 06:30:47;;;;;;;0.60;0.60;;;;;;;4.47;92.59;101985.66;5106512;28;20026;-71
2023/02/13 06:33:13;;;;;;;0.50;0.50;;;;;;;4.48;92.66;101992.56;5088074;28;20046;-76
2023/02/13 06:35:38;;;;;;;0.50;0.50;;;;;;;4.51;92.72;101991.78;5106443;28;20028;-71
2023/02/13 06:38:04;;;;;;;0.50;0.50;;;;;;;4.44;92.86;101988.97;5106112;28;20024;-72
2023/02/13 06:40:29;;;;;;;0.50;0.50;;;;;;;4.55;92.56;101996.28;5106136;28;20028;-71
2023/02/13 06:42:55;;;;;;;0.50;0.50;;;;;;;4.55;92.69;101999.69;5106166;28;20103;-70
2023/02/13 06:45:20;;;;;;;0.50;0.50;;;;;;;4.56;92.84;101990.31;5106317;28;20028;-71
2023/02/13 06:47:47;;;;;;;0.50;0.50;;;;;;;4.53;92.82;101979.88;5087792;28;20511;-72
2023/02/13 06:50:14;;;;;;;0.50;0.50;;;;;;;4.57;92.77;101985.22;5087588;28;20039;-71
2023/02/13 06:52:45;;;;;;;0.40;0.40;;;;;;;4.62;93.06;101981.97;5105941;28;20032;-71
2023/02/13 06:55:10;;;;;;;0.50;0.50;;;;;;;4.64;92.76;101981.22;5105124;28;20028;-72
2023/02/13 06:57:35;;;;;;;0.50;0.50;;;;;;;4.68;92.88;101990.81;5105902;28;20042;-71
2023/02/13 07:00:04;;;;;;;0.60;0.60;;;;;;;4.70;92.98;101994.34;5105696;28;20027;-72
2023/02/13 07:02:33;;;;;;;0.82;0.82;;;;;;;4.67;92.83;101983.91;5105882;28;20086;-71
2023/02/13 07:04:58;;;;;;;0.40;0.40;;;;;;;4.77;92.57;101976.56;5106075;28;20035;-72
2023/02/13 07:07:24;;;;;;;0.40;0.40;;;;;;;4.75;92.75;101971.38;5105659;28;20024;-72
2023/02/13 07:09:49;;;;;;;0.50;0.50;;;;;;;4.82;92.67;101983.66;5106003;28;20062;-71
2023/02/13 07:12:24;;;;;;;0.50;0.50;;;;;;;4.86;92.78;101969.22;5106003;28;20020;-73
2023/02/13 07:14:49;;;;;;;0.50;0.50;;;;;;;4.89;92.88;101979.66;5104475;28;20020;-71
2023/02/13 07:17:18;;;;;;;2.70;2.47;;;;;;;4.92;92.87;101974.63;5087711;28;20020;-72
2023/02/13 07:19:44;;;;;;;0.80;0.80;;;;;;;4.95;93.03;101985.03;5105729;28;20060;-71
2023/02/13 07:22:09;;;;;;;8.35;7.38;;;;;;;4.79;92.81;101950.06;5105719;28;20020;-72
2023/02/13 07:24:37;;;;;;;0.77;0.77;;;;;;;4.98;92.83;101980.84;5105691;28;20028;-72
2023/02/13 07:27:03;;;;;;;0.40;0.40;;;;;;;4.98;92.46;101986.00;5087388;28;20096;-72
2023/02/13 07:29:28;;;;;;;0.50;0.50;;;;;;;5.05;92.41;101991.44;5087348;28;20020;-72
2023/02/13 07:31:54;;;;;;;0.50;0.50;;;;;;;5.16;92.52;101991.00;5105542;28;20028;-72
2023/02/13 07:34:19;;;;;;;0.50;0.50;;;;;;;5.23;92.64;101974.97;5105641;28;20024;-73
2023/02/13 07:36:44;;;;;;;0.50;0.50;;;;;;;5.32;92.44;101964.13;5105565;28;20028;-74
2023/02/13 07:39:10;;;;;;;0.50;0.50;;;;;;;5.51;92.68;101976.00;5087195;28;20498;-73
2023/02/13 07:41:35;;;;;;;0.50;0.50;;;;;;;5.63;93.13;101956.69;5105389;28;20028;-74
2023/02/13 07:44:04;;;;;;;0.50;0.50;;;;;;;5.89;92.49;101952.50;5105379;28;20028;-73
2023/02/13 07:46:29;;;;;;;0.43;0.43;;;;;;;6.26;92.08;101944.34;5105353;28;20020;-73
2023/02/13 07:48:55;;;;;;;0.50;0.50;;;;;;;6.44;92.39;101957.88;5104999;28;20040;-73
2023/02/13 07:51:24;;;;;;;2.92;2.67;;;;;;;6.73;91.15;101961.34;5105366;28;20073;-71
2023/02/13 07:53:49;;;;;;;0.50;0.50;;;;;;;6.89;91.10;101970.47;5105124;28;20020;-72
2023/02/13 07:56:15;;;;;;;0.43;0.43;;;;;;;7.05;90.18;101969.25;5105305;28;20050;-71
2023/02/13 07:58:40;;;;;;;0.52;0.52;;;;;;;7.29;90.61;101969.16;5105142;28;20065;-73
2023/02/13 08:01:11;;;;;;;0.50;0.50;;;;;;;7.44;90.11;101948.03;5087297;28;20456;-72
2023/02/13 08:03:37;;;;;;;0.43;0.43;;;;;;;7.68;89.11;101975.44;5105464;28;20526;-73
2023/02/13 08:06:03;;;;;;;0.50;0.50;;;;;;;8.01;87.94;101978.06;5105358;28;20027;-73
2023/02/13 08:08:29;;;;;;;0.60;0.60;;;;;;;8.41;86.96;101992.09;5108963;28;20115;-72
2023/02/13 08:13:39;;;;;;;0.50;0.50;;;;;;;9.27;84.22;101999.38;5109468;28;20126;-72
2023/02/13 08:16:05;;;;;;;2.15;1.60;;;;;;;9.55;80.62;102022.44;5109314;28;20020;-71
2023/02/13 08:18:30;;;;;;;0.40;0.40;;;;;;;9.75;79.37;102030.66;5109330;28;20499;-72
2023/02/13 08:20:56;;;;;;;0.40;0.40;;;;;;;10.02;78.24;102026.88;5109142;28;20024;-72
2023/02/13 08:23:21;;;;;;;0.40;0.40;;;;;;;10.24;77.56;102037.66;5108955;28;20024;-71
2023/02/13 08:25:48;;;;;;;0.60;0.60;;;;;;;10.54;77.90;102046.03;5109124;28;20149;-71
2023/02/13 08:28:14;;;;;;;0.40;0.40;;;;;;;10.94;78.65;102042.38;5090573;28;20020;-71
2023/02/13 08:30:40;;;;;;;0.43;0.43;;;;;;;11.23;77.37;102041.97;5109047;28;20059;-72
2023/02/13 08:33:05;;;;;;;0.40;0.40;;;;;;;11.64;77.62;102054.72;5108887;28;20016;-70
2023/02/13 08:35:31;;;;;;;1.30;1.30;;;;;;;12.03;76.11;102068.19;5108902;28;20020;-70
2023/02/13 08:38:00;;;;;;;0.40;0.40;;;;;;;12.45;74.80;102070.44;5108526;28;20030;-71
2023/02/13 08:40:26;;;;;;;0.40;0.40;;;;;;;12.80;74.74;102070.75;5108862;28;20084;-70
2023/02/13 08:42:51;;;;;;;0.40;0.40;;;;;;;13.04;73.30;102075.31;5107419;28;20020;-70
2023/02/13 08:45:17;;;;;;;0.40;0.40;;;;;;;12.95;72.27;102059.59;5108809;28;20024;-71
2023/02/13 08:47:42;;;;;;;0.40;0.40;;;;;;;13.17;71.80;102076.28;5108480;28;20055;-70
2023/02/13 08:50:08;;;;;;;0.60;0.60;;;;;;;13.45;72.14;102086.06;5108459;28;20015;-71
2023/02/13 08:52:34;;;;;;;0.40;0.40;;;;;;;13.82;72.33;102090.63;5108015;28;20032;-70
2023/02/13 08:54:59;;;;;;;0.40;0.40;;;;;;;14.22;70.57;102077.75;5108801;28;20030;-70
2023/02/13 08:57:25;;;;;;;0.47;0.47;;;;;;;14.35;68.05;102075.16;5108546;28;20019;-70
2023/02/13 08:59:50;;;;;;;4.68;2.95;;;;;;;14.77;68.53;102058.69;5089903;28;20034;-70
2023/02/13 09:02:15;;;;;;;2.17;1.08;;;;;;;14.78;65.77;102063.91;5108395;28;20027;-70
2023/02/13 09:04:41;;;;;;;0.40;0.40;;;;;;;15.20;66.45;102069.16;5108267;28;20044;-70
2023/02/13 09:07:06;;;;;;;0.40;0.40;;;;;;;15.41;66.00;102074.38;5108378;28;20092;-71
2023/02/13 09:09:32;;;;;;;0.52;0.52;;;;;;;15.49;64.77;102068.22;5089898;28;20030;-72
2023/02/13 09:11:57;;;;;;;0.30;0.30;;;;;;;15.36;65.74;102079.59;5108373;28;20024;-71
2023/02/13 09:14:25;;;;;;;2.22;1.38;;;;;;;15.45;65.78;102086.56;5108317;28;20049;-71
2023/02/13 09:16:51;;;;;;;2.35;2.25;;;;;;;15.55;65.58;102082.19;5107983;28;20106;-71
2023/02/13 09:19:16;;;;;;;0.30;0.30;;;;;;;15.64;63.52;102079.53;5107227;28;20024;-71
2023/02/13 09:21:41;;;;;;;0.30;0.30;;;;;;;15.82;64.00;102064.63;5107965;28;20020;-72
2023/02/13 09:24:08;;;;;;;0.40;0.40;;;;;;;16.09;64.71;102066.31;5107617;28;20060;-71
2023/02/13 09:26:34;;;;;;;0.30;0.30;;;;;;;16.34;65.07;102068.78;5107824;28;20016;-71
2023/02/13 09:28:59;;;;;;;0.20;0.20;;;;;;;16.47;64.13;102059.09;5107612;28;20044;-72
2023/02/13 09:31:25;;;;;;;0.30;0.30;;;;;;;16.67;62.43;102065.09;5089685;28;20020;-70
2023/02/13 09:33:50;;;;;;;0.88;0.88;;;;;;;16.58;62.27;102048.53;5107743;28;20047;-71
2023/02/13 09:36:21;;;;;;;0.20;0.20;;;;;;;16.44;58.41;102068.72;5089540;28;20111;-72
2023/02/13 09:38:50;;;;;;;0.93;0.93;;;;;;;16.06;58.67;102066.31;5107459;28;20088;-73
2023/02/13 09:41:20;;;;;;;0.30;0.30;;;;;;;15.66;58.91;102058.59;5106289;28;20020;-71
2023/02/13 09:43:51;;;;;;;0.30;0.30;;;;;;;15.57;57.01;102054.25;5107755;28;20016;-71
2023/02/13 09:46:30;;;;;;;0.32;0.32;;;;;;;15.58;59.30;102067.34;5107818;28;20045;-73
2023/02/13 09:48:58;;;;;;;0.22;0.22;;;;;;;15.54;60.72;102057.78;5089372;28;20135;-73
2023/02/13 09:51:26;;;;;;;1.33;1.20;;;;;;;15.77;61.13;102051.56;5107617;28;20020;-71
2023/02/13 09:54:00;;;;;;;0.82;0.82;;;;;;;15.89;58.76;102050.66;5107053;28;20028;-71
2023/02/13 09:56:53;;;;;;;0.30;0.30;;;;;;;15.81;56.79;102050.69;5107456;28;20028;-70
2023/02/13 09:59:48;;;;;;;0.45;0.45;;;;;;;15.68;57.21;102065.59;5107340;28;20103;-71
2023/02/13 10:02:25;;;;;;;0.50;0.50;;;;;;;15.61;55.74;102053.38;5052779;28;20054;-71
2023/02/13 10:05:05;;;;;;;31.30;2.08;;;;;;;15.48;56.49;102071.72;5107282;28;20031;-72
2023/02/13 10:08:19;;;;;;;0.60;0.60;;;;;;;15.19;56.65;102061.31;5088561;28;20034;-70
2023/02/13 10:10:47;;;;;;;0.30;0.30;;;;;;;15.49;56.89;102073.47;5061762;28;20040;-71
2023/02/13 10:13:39;;;;;;;0.30;0.30;;;;;;;15.62;56.08;102065.59;5106863;28;20385;-71
2023/02/13 10:16:11;;;;;;;1.55;1.45;;;;;;;15.90;54.20;102082.94;5107017;28;20024;-71
2023/02/13 10:19:02;;;;;;;;;;;;;;;16.14;53.62;102075.88;5107650;28;20031;-69
2023/02/13 10:21:41;;;;;;;0.30;0.30;;;;;;;16.21;55.71;102088.09;5102722;28;20045;-70
2023/02/13 10:24:34;;;;;;;0.30;0.30;;;;;;;16.53;51.63;102101.91;5088035;28;20040;-73
2023/02/13 10:27:11;;;;;;;0.30;0.30;;;;;;;16.19;50.79;102088.09;5106714;28;20024;-72
2023/02/13 10:30:08;;;;;;;0.20;0.20;;;;;;;16.06;52.12;102100.38;5106453;28;20103;-72
2023/02/13 10:33:20;;;;;;;8.98;1.65;;;;;;;16.06;52.54;102100.38;5106587;28;20024;-74
2023/02/13 10:35:59;;;;;;;0.38;0.38;;;;;;;16.09;52.72;102103.00;5106737;28;20130;-74
2023/02/13 10:38:29;;;;;;;0.40;0.40;;;;;;;15.93;52.11;102107.38;5106609;28;20051;-75
2023/02/13 10:41:22;;;;;;;0.30;0.30;;;;;;;15.82;50.73;102107.44;5106491;28;20058;-74
2023/02/13 10:44:05;;;;;;;0.30;0.30;;;;;;;15.39;50.39;102108.38;5106535;28;20016;-74
2023/02/13 10:47:18;;;;;;;0.40;0.40;;;;;;;14.69;52.19;102126.63;5088277;28;20396;-74
2023/02/13 10:50:02;;;;;;;1.38;0.65;;;;;;;14.15;54.77;102125.63;5065990;28;20042;-74
2023/02/13 10:52:48;;;;;;;0.40;0.40;;;;;;;14.11;55.66;102124.72;5102531;27;20374;-65
2023/02/13 10:55:48;;;;;;;0.40;0.40;;;;;;;14.50;54.98;102121.38;5102832;28;20036;-67
2023/02/13 10:58:51;;;;;;;0.40;0.40;;;;;;;14.75;51.88;102130.16;5094401;28;20048;-66
2023/02/13 11:01:31;;;;;;;0.30;0.30;;;;;;;14.42;51.82;102118.75;5101527;28;20028;-66
2023/02/13 11:04:05;;;;;;;2.58;1.10;;;;;;;14.25;51.67;102113.44;5102573;28;20108;-66
2023/02/13 11:06:33;;;;;;;0.40;0.40;;;;;;;14.23;51.84;102102.13;5102593;28;20020;-66
2023/02/13 11:08:58;;;;;;;0.30;0.30;;;;;;;14.28;51.11;102117.81;5101161;28;20039;-66
2023/02/13 11:11:40;;;;;;;0.82;0.82;;;;;;;14.52;50.84;102124.84;5102596;28;20016;-68
2023/02/13 11:14:23;;;;;;;0.45;0.45;;;;;;;14.99;49.88;102119.72;5102621;28;20384;-67
2023/02/13 11:17:02;;;;;;;0.40;0.40;;;;;;;15.19;49.27;102132.81;5102525;28;20032;-66
2023/02/13 11:19:32;;;;;;;0.40;0.40;;;;;;;15.39;48.14;102123.22;5100756;28;20027;-66
2023/02/13 11:22:04;;;;;;;2.70;0.88;;;;;;;15.43;49.03;102124.97;5102254;28;20525;-67
2023/02/13 11:24:31;;;;;;;0.35;0.35;;;;;;;15.69;47.52;102124.03;5102133;28;20028;-66
2023/02/13 11:27:07;;;;;;;0.40;0.40;;;;;;;15.49;47.66;102111.88;5102183;28;20386;-66
2023/02/13 11:29:36;;;;;;;0.50;0.50;;;;;;;15.71;47.67;102110.06;5102176;28;20020;-66
2023/02/13 11:32:32;;;;;;;0.40;0.40;;;;;;;15.90;46.22;102106.50;5101883;28;20020;-67
2023/02/13 11:35:24;;;;;;;0.30;0.30;;;;;;;16.13;46.24;102095.13;5097259;28;20040;-66
2023/02/13 11:38:14;;;;;;;0.30;0.30;;;;;;;16.25;46.80;102109.88;5101759;28;20039;-65
2023/02/13 11:40:43;;;;;;;0.30;0.30;;;;;;;16.42;46.42;102102.81;5102025;28;20016;-66
2023/02/13 11:43:18;;;;;;;0.63;0.63;;;;;;;16.97;47.75;102107.69;5101855;28;20024;-66
2023/02/13 11:45:43;;;;;;;0.30;0.30;;;;;;;17.28;47.45;102109.22;5101994;28;20063;-67
2023/02/13 11:48:21;;;;;;;0.30;0.30;;;;;;;17.24;46.93;102102.28;5101804;28;20024;-67
2023/02/13 11:50:51;;;;;;;0.40;0.40;;;;;;;17.43;47.81;102102.94;5100494;28;20044;-66
2023/02/13 11:53:24;;;;;;;0.20;0.20;;;;;;;17.97;47.55;102104.13;5101408;28;20039;-66
2023/02/13 11:56:11;;;;;;;0.30;0.30;;;;;;;18.21;45.60;102105.56;5100280;28;20040;-66
2023/02/13 11:58:38;;;;;;;2.60;2.40;;;;;;;17.21;46.74;102104.03;5101653;28;20103;-67
2023/02/13 12:01:18;;;;;;;0.80;0.80;;;;;;;15.76;47.39;102101.31;5100265;28;20017;-66
2023/02/13 12:04:04;;;;;;;3.05;2.85;;;;;;;14.63;50.72;102104.84;5089281;28;20051;-66
2023/02/13 12:06:38;;;;;;;0.40;0.40;;;;;;;13.88;52.67;102109.81;5088224;28;20045;-65
2023/02/13 12:09:12;;;;;;;0.70;0.70;;;;;;;13.18;53.40;102095.44;5087982;28;20030;-66
2023/02/13 12:11:44;;;;;;;0.35;0.35;;;;;;;12.38;54.17;102099.91;5087954;28;20090;-67
2023/02/13 12:14:15;;;;;;;0.30;0.30;;;;;;;11.62;55.84;102091.94;5087777;28;20028;-66
2023/02/13 12:16:53;;;;;;;4.00;3.03;;;;;;;11.43;56.52;102099.47;5087767;28;20028;-66
2023/02/13 12:19:32;;;;;;;0.40;0.40;;;;;;;11.00;57.05;102102.25;5087607;28;20425;-67
2023/02/13 12:22:13;;;;;;;0.50;0.50;;;;;;;10.71;58.18;102116.47;5087605;28;20047;-66
2023/02/13 12:25:08;;;;;;;0.52;0.52;;;;;;;10.50;58.37;102112.63;5087694;28;20033;-67
2023/02/13 12:27:41;;;;;;;3.58;1.70;;;;;;;10.24;58.90;102122.47;5087321;28;20025;-68
2023/02/13 12:30:44;;;;;;;0.50;0.50;;;;;;;10.01;59.81;102115.06;5087716;28;20051;-66
2023/02/13 12:33:25;;;;;;;2.13;1.98;;;;;;;9.72;60.69;102118.75;5086195;28;20029;-66